createdAt,value
2019-04-16T00:02:27.374Z,94982.16
2019-04-16T00:05:01.225Z,94979.91
2019-04-16T00:07:44.276Z,94982.85
2019-04-16T00:10:15.598Z,94974.51
2019-04-16T00:12:56.332Z,94980.61
2019-04-16T00:15:25.868Z,94985.21
2019-04-16T00:17:55.420Z,94981.20
2019-04-16T00:20:24.941Z,94978.62
2019-04-16T00:23:12.142Z,94974.61
2019-04-16T00:25:41.692Z,94979.08
2019-04-16T00:28:11.236Z,94977.80
2019-04-16T00:30:41.085Z,94969.47
2019-04-16T00:33:11.495Z,94971.70
2019-04-16T00:35:41.101Z,94967.22
2019-04-16T00:38:10.604Z,94962.16
2019-04-16T00:40:40.161Z,94963.45
2019-04-16T00:43:09.672Z,94966.39
2019-04-16T00:45:40.365Z,94966.72
2019-04-16T00:48:09.857Z,94966.98
2019-04-16T00:50:39.390Z,94963.22
2019-04-16T00:53:09.263Z,94958.08
2019-04-16T00:55:38.799Z,94960.39
2019-04-16T00:58:08.563Z,94958.97
2019-04-16T01:00:38.155Z,94959.80
2019-04-16T01:03:07.678Z,94956.15
2019-04-16T01:05:37.199Z,94956.59
2019-04-16T01:08:06.851Z,94960.34
2019-04-16T01:10:36.351Z,94959.16
2019-04-16T01:13:05.848Z,94959.39
2019-04-16T01:15:35.375Z,94965.70
2019-04-16T01:18:07.823Z,94964.63
2019-04-16T01:20:36.220Z,94972.83
2019-04-16T01:23:05.744Z,94974.34
2019-04-16T01:25:35.235Z,94973.73
2019-04-16T01:28:09.384Z,94971.16
2019-04-16T01:30:40.519Z,94974.80
2019-04-16T01:33:27.498Z,94970.34
2019-04-16T01:36:04.046Z,94973.28
2019-04-16T01:38:35.177Z,94970.14
2019-04-16T01:41:06.390Z,94971.52
2019-04-16T01:43:36.463Z,94965.91
2019-04-16T01:46:06.188Z,94971.05
2019-04-16T01:48:38.598Z,94969.61
2019-04-16T01:51:06.958Z,94973.07
2019-04-16T01:53:36.458Z,94975.08
2019-04-16T01:56:06.183Z,94970.30
2019-04-16T01:58:35.702Z,94973.59
2019-04-16T02:01:08.152Z,94972.62
2019-04-16T02:03:36.702Z,94970.41
2019-04-16T02:06:06.268Z,94974.02
2019-04-16T02:08:35.784Z,94970.48
2019-04-16T02:11:09.803Z,94974.55
2019-04-16T02:13:36.636Z,94978.30
2019-04-16T02:16:06.192Z,94985.47
2019-04-16T02:18:36.101Z,94980.77
2019-04-16T02:21:09.602Z,94983.28
2019-04-16T02:23:36.872Z,94978.56
2019-04-16T02:26:06.459Z,94982.41
2019-04-16T02:28:36.006Z,94974.03
2019-04-16T02:31:13.733Z,94973.38
2019-04-16T02:33:36.760Z,94975.17
2019-04-16T02:36:06.638Z,94971.52
2019-04-16T02:38:36.144Z,94975.48
2019-04-16T02:41:05.841Z,94980.73
2019-04-16T02:43:39.755Z,94984.91
2019-04-16T02:46:06.663Z,94988.66
2019-04-16T02:48:36.194Z,94987.77
2019-04-16T02:51:13.052Z,94989.61
2019-04-16T02:53:58.869Z,94992.06
2019-04-16T02:56:43.921Z,94992.16
2019-04-16T02:59:25.032Z,94991.48
2019-04-16T03:01:56.236Z,94991.45
2019-04-16T03:04:27.793Z,94982.14
2019-04-16T03:06:57.370Z,94993.59
2019-04-16T03:09:28.114Z,94989.86
2019-04-16T03:11:57.679Z,94992.94
2019-04-16T03:14:29.766Z,94992.59
2019-04-16T03:17:06.805Z,94994.30
2019-04-16T03:19:38.904Z,94990.01
2019-04-16T03:22:08.102Z,94987.73
2019-04-16T03:24:40.188Z,94988.73
2019-04-16T03:27:08.978Z,94982.67
2019-04-16T03:29:38.555Z,94981.44
2019-04-16T03:32:12.730Z,94978.42
2019-04-16T03:34:39.369Z,94974.86
2019-04-16T03:37:08.865Z,94974.61
2019-04-16T03:39:38.389Z,94976.52
2019-04-16T03:42:07.912Z,94983.58
2019-04-16T03:44:37.568Z,94969.83
2019-04-16T03:47:07.122Z,94977.73
2019-04-16T03:49:36.622Z,94984.70
2019-04-16T03:52:08.746Z,94984.16
2019-04-16T03:54:38.683Z,94982.45
2019-04-16T03:57:08.207Z,94981.47
2019-04-16T03:59:40.086Z,94991.66
2019-04-16T04:02:09.214Z,94984.17
2019-04-16T04:04:38.792Z,94982.39
2019-04-16T04:07:11.531Z,94980.53
2019-04-16T04:09:39.551Z,94984.23
2019-04-16T04:12:09.596Z,94988.28
2019-04-16T04:14:40.326Z,94988.92
2019-04-16T04:17:09.933Z,94993.95
2019-04-16T04:19:39.449Z,94987.97
2019-04-16T04:22:09.154Z,94993.47
2019-04-16T04:24:38.667Z,94992.39
2019-04-16T04:27:12.828Z,94993.52
2019-04-16T04:29:39.437Z,94992.02
2019-04-16T04:32:08.955Z,94997.75
2019-04-16T04:34:38.478Z,95001.70
2019-04-16T04:37:08.085Z,95004.78
2019-04-16T04:39:37.777Z,95001.74
2019-04-16T04:42:07.284Z,95009.02
2019-04-16T04:44:37.168Z,95005.77
2019-04-16T04:47:06.734Z,95010.50
2019-04-16T04:49:36.305Z,95006.09
2019-04-16T04:52:05.956Z,95011.61
2019-04-16T04:54:35.550Z,95018.36
2019-04-16T04:57:05.164Z,95014.97
2019-04-16T04:59:54.069Z,95020.61
2019-04-16T05:02:55.089Z,95021.16
2019-04-16T05:05:32.070Z,95023.19
2019-04-16T05:08:21.911Z,95022.77
2019-04-16T05:10:58.879Z,94852.89
2019-04-16T05:13:24.905Z,95025.95
2019-04-16T05:15:53.942Z,95028.23
2019-04-16T05:18:23.407Z,95030.19
2019-04-16T05:20:52.898Z,95029.17
2019-04-16T05:23:25.710Z,95030.85
2019-04-16T05:25:53.634Z,95030.55
2019-04-16T05:28:23.155Z,95027.55
2019-04-16T05:30:53.224Z,95023.56
2019-04-16T05:33:22.841Z,95021.49
2019-04-16T05:35:52.367Z,95025.60
2019-04-16T05:38:23.576Z,95012.80
2019-04-16T05:40:53.150Z,95001.87
2019-04-16T05:43:23.279Z,95001.16
2019-04-16T05:45:52.775Z,94998.80
2019-04-16T05:48:22.823Z,95004.69
2019-04-16T05:50:52.358Z,95011.78
2019-04-16T05:53:21.846Z,95009.77
2019-04-16T05:55:57.246Z,95001.56
2019-04-16T05:58:27.778Z,95008.50
2019-04-16T06:00:58.395Z,95005.81
2019-04-16T06:03:27.884Z,95009.70
2019-04-16T06:05:59.340Z,95004.73
2019-04-16T06:08:28.647Z,95001.28
2019-04-16T06:10:58.253Z,95001.86
2019-04-16T06:13:27.625Z,95004.48
2019-04-16T06:16:01.888Z,94997.89
2019-04-16T06:18:31.218Z,94993.64
2019-04-16T06:21:06.114Z,95008.27
2019-04-16T06:23:37.244Z,95003.36
2019-04-16T06:26:24.037Z,95005.36
2019-04-16T06:28:57.102Z,95003.30
2019-04-16T06:31:43.046Z,94998.52
2019-04-16T06:34:12.374Z,94991.16
2019-04-16T06:36:49.380Z,94999.85
2019-04-16T06:39:20.668Z,94996.30
2019-04-16T06:41:52.736Z,95000.16
2019-04-16T06:44:24.013Z,95004.50
2019-04-16T06:46:55.109Z,94997.67
2019-04-16T06:49:26.264Z,94995.56
2019-04-16T06:52:16.588Z,94995.09
2019-04-16T06:55:03.733Z,94988.42
2019-04-16T06:57:50.015Z,94994.31
2019-04-16T07:00:21.297Z,94988.18
2019-04-16T07:03:02.279Z,94990.66
2019-04-16T07:05:38.978Z,94993.16
2019-04-16T07:08:36.826Z,94992.67
2019-04-16T07:10:58.680Z,94996.04
2019-04-16T07:13:28.418Z,94996.39
2019-04-16T07:15:57.986Z,94987.03
2019-04-16T07:18:27.523Z,94989.58
2019-04-16T07:20:57.063Z,94986.42
2019-04-16T07:23:26.764Z,94993.36
2019-04-16T07:25:56.517Z,94989.94
2019-04-16T07:28:34.844Z,94993.75
2019-04-16T07:31:32.722Z,94994.66
2019-04-16T07:34:12.181Z,94987.27
2019-04-16T07:37:00.477Z,94988.82
2019-04-16T07:39:47.991Z,94985.81
2019-04-16T07:42:22.228Z,94982.47
2019-04-16T07:44:58.780Z,94990.16
2019-04-16T07:47:33.878Z,94986.33
2019-04-16T07:50:06.029Z,94985.61
2019-04-16T07:52:42.088Z,94984.46
2019-04-16T07:55:15.273Z,94982.02
2019-04-16T07:57:44.791Z,94989.53
2019-04-16T08:00:15.124Z,94987.52
2019-04-16T08:02:44.633Z,94985.26
2019-04-16T08:05:14.266Z,94983.45
2019-04-16T08:07:43.823Z,94984.27
2019-04-16T08:10:16.647Z,94986.50
2019-04-16T08:12:46.540Z,94989.57
2019-04-16T08:15:16.168Z,94984.90
2019-04-16T08:18:05.062Z,94990.80
2019-04-16T08:20:34.911Z,94985.17
2019-04-16T08:23:06.119Z,94957.09
2019-04-16T08:25:35.702Z,94983.76
2019-04-16T08:28:07.431Z,94983.19
2019-04-16T08:30:39.371Z,94986.66
2019-04-16T08:33:10.526Z,94979.34
2019-04-16T08:35:38.974Z,94988.13
2019-04-16T08:38:08.540Z,94988.82
2019-04-16T08:40:38.044Z,94985.41
2019-04-16T08:43:07.548Z,94992.77
2019-04-16T08:45:39.923Z,94987.33
2019-04-16T08:48:09.263Z,94984.63
2019-04-16T08:50:39.254Z,94984.03
2019-04-16T08:53:13.560Z,94984.75
2019-04-16T08:55:39.995Z,94991.86
2019-04-16T08:58:12.275Z,94997.91
2019-04-16T09:00:45.891Z,94996.11
2019-04-16T09:03:15.278Z,94994.00
2019-04-16T09:05:43.606Z,94999.95
2019-04-16T09:08:32.654Z,94994.53
2019-04-16T09:11:03.679Z,94997.73
2019-04-16T09:13:48.166Z,94995.57
2019-04-16T09:16:18.004Z,94995.70
2019-04-16T09:19:04.541Z,94993.74
2019-04-16T09:21:34.062Z,94996.11
2019-04-16T09:24:21.545Z,95002.98
2019-04-16T09:26:56.439Z,95004.62
2019-04-16T09:29:43.537Z,95000.36
2019-04-16T09:32:12.836Z,95001.80
2019-04-16T09:34:52.490Z,94987.34
2019-04-16T09:37:25.497Z,94994.17
2019-04-16T09:39:54.649Z,94998.83
2019-04-16T09:42:24.160Z,94995.73
2019-04-16T09:44:53.689Z,94997.70
2019-04-16T09:47:23.257Z,94989.39
2019-04-16T09:49:52.825Z,94990.64
2019-04-16T09:52:22.995Z,94980.95
2019-04-16T09:54:53.601Z,94986.73
2019-04-16T09:57:24.489Z,94979.80
2019-04-16T09:59:55.920Z,94975.54
2019-04-16T10:02:27.221Z,94978.33
2019-04-16T10:04:56.721Z,94976.23
2019-04-16T10:07:26.314Z,94980.09
2019-04-16T10:09:55.927Z,94974.47
2019-04-16T10:12:25.444Z,94971.72
2019-04-16T10:14:55.005Z,94975.77
2019-04-16T10:17:24.585Z,94973.22
2019-04-16T10:19:54.113Z,94967.22
2019-04-16T10:22:23.732Z,94965.83
2019-04-16T10:25:01.902Z,94962.14
2019-04-16T10:27:36.315Z,94960.36
2019-04-16T10:30:16.196Z,94959.00
2019-04-16T10:33:05.230Z,94955.73
2019-04-16T10:35:34.772Z,94965.84
2019-04-16T10:41:17.880Z,94948.10
2019-04-16T10:44:05.033Z,94956.59
2019-04-16T10:46:45.175Z,94953.51
2019-04-16T10:49:28.015Z,94950.94
2019-04-16T10:52:15.130Z,94953.22
2019-04-16T10:54:52.174Z,94961.45
2019-04-16T10:57:25.992Z,94962.39
2019-04-16T11:00:13.128Z,94950.97
2019-04-16T11:02:44.373Z,94945.98
2019-04-16T11:05:19.153Z,94938.30
2019-04-16T11:07:48.627Z,94936.42
2019-04-16T11:10:18.340Z,94927.48
2019-04-16T11:12:47.853Z,94936.31
2019-04-16T11:15:25.193Z,94938.29
2019-04-16T11:17:54.860Z,94935.16
2019-04-16T11:20:24.611Z,94936.70
2019-04-16T11:22:54.248Z,94932.91
2019-04-16T11:25:23.923Z,94933.16
2019-04-16T11:27:53.517Z,94935.23
2019-04-16T11:30:39.823Z,94934.20
2019-04-16T11:33:09.292Z,94929.86
2019-04-16T11:35:38.907Z,94937.73
2019-04-16T11:38:08.446Z,94936.86
2019-04-16T11:40:40.963Z,94938.29
2019-04-16T11:43:09.413Z,94926.74
2019-04-16T11:45:39.102Z,94920.52
2019-04-16T11:48:08.711Z,94925.05
2019-04-16T11:50:38.327Z,94925.09
2019-04-16T11:53:07.950Z,94920.66
2019-04-16T11:55:37.629Z,94917.09
2019-04-16T11:58:09.262Z,94915.41
2019-04-16T12:00:46.135Z,94921.08
2019-04-16T12:03:36.708Z,94915.77
2019-04-16T12:06:28.313Z,94911.16
2019-04-16T12:09:12.411Z,94914.86
2019-04-16T12:12:01.368Z,94919.45
2019-04-16T12:14:34.683Z,94911.61
2019-04-16T12:17:20.365Z,94907.61
2019-04-16T12:20:07.423Z,94907.05
2019-04-16T12:22:39.360Z,94908.81
2019-04-16T12:25:13.841Z,94912.14
2019-04-16T12:27:48.814Z,94912.73
2019-04-16T12:30:23.761Z,94906.00
2019-04-16T12:33:08.810Z,94915.32
2019-04-16T12:35:35.972Z,94910.77
2019-04-16T12:38:19.233Z,94907.38
2019-04-16T12:41:08.632Z,94910.80
2019-04-16T12:43:39.848Z,94905.14
2019-04-16T12:46:23.096Z,94898.48
2019-04-16T12:48:53.288Z,94897.08
2019-04-16T12:51:30.474Z,94900.33
2019-04-16T12:54:01.770Z,94896.83
2019-04-16T12:56:50.742Z,94894.44
2019-04-16T12:59:24.937Z,94890.64
2019-04-16T13:01:56.113Z,94900.00
2019-04-16T13:04:30.891Z,94895.41
2019-04-16T13:07:10.965Z,94883.34
2019-04-16T13:09:46.007Z,94890.82
2019-04-16T13:12:33.002Z,94890.05
2019-04-16T13:15:08.133Z,94894.73
2019-04-16T13:17:39.259Z,94886.66
2019-04-16T13:20:13.511Z,94886.41
2019-04-16T13:22:44.652Z,94885.95
2019-04-16T13:25:19.870Z,94895.37
2019-04-16T13:27:50.989Z,94896.92
2019-04-16T13:30:21.330Z,94896.95
2019-04-16T13:32:50.936Z,94899.00
2019-04-16T13:35:20.501Z,94893.75
2019-04-16T13:37:50.012Z,94891.00
2019-04-16T13:40:19.896Z,94884.55
2019-04-16T13:42:49.455Z,94882.91
2019-04-16T13:48:27.589Z,94802.71
2019-04-16T13:50:58.942Z,94880.73
2019-04-16T13:56:39.769Z,94876.91
2019-04-16T13:59:11.067Z,94870.94
2019-04-16T14:01:59.070Z,94877.05
2019-04-16T14:04:31.515Z,94877.13
2019-04-16T14:07:00.005Z,94872.20
2019-04-16T14:09:29.522Z,94878.41
2019-04-16T14:11:59.101Z,94876.54
2019-04-16T14:14:28.729Z,94879.73
2019-04-16T14:17:08.227Z,94885.59
2019-04-16T14:19:29.570Z,94884.42
2019-04-16T14:21:59.186Z,94891.47
2019-04-16T14:24:28.766Z,94894.23
2019-04-16T14:26:58.631Z,94896.70
2019-04-16T14:29:28.195Z,94891.04
2019-04-16T14:31:57.751Z,94888.55
2019-04-16T14:34:31.994Z,94893.11
2019-04-16T14:37:21.084Z,94890.95
2019-04-16T14:39:55.113Z,94789.38
2019-04-16T14:42:24.616Z,94897.26
2019-04-16T14:45:07.428Z,94888.07
2019-04-16T14:47:38.052Z,94887.50
2019-04-16T14:53:51.138Z,94889.99
2019-04-16T14:59:04.277Z,94893.62
2019-04-16T15:01:35.441Z,94888.98
2019-04-16T15:07:23.841Z,94889.20
2019-04-16T15:10:01.084Z,94888.25
2019-04-16T15:12:35.096Z,94882.88
2019-04-16T15:15:20.040Z,94891.88
2019-04-16T15:17:57.075Z,94884.10
2019-04-16T15:20:44.315Z,94886.81
2019-04-16T15:23:18.123Z,94896.63
2019-04-16T15:26:05.173Z,94901.38
2019-04-16T15:28:52.639Z,94897.16
2019-04-16T15:31:23.774Z,94897.09
2019-04-16T15:33:54.917Z,94908.06
2019-04-16T15:36:28.794Z,94908.59
2019-04-16T15:39:11.976Z,94908.28
2019-04-16T15:41:59.197Z,94912.52
2019-04-16T15:44:32.062Z,94914.40
2019-04-16T15:47:18.381Z,94912.92
2019-04-16T15:50:00.704Z,94916.70
2019-04-16T15:52:39.061Z,94917.16
2019-04-16T15:55:26.575Z,94917.72
2019-04-16T15:58:04.925Z,94921.12
2019-04-16T16:00:54.966Z,94918.45
2019-04-16T16:03:26.845Z,94917.37
2019-04-16T16:06:09.662Z,94916.96
2019-04-16T16:08:57.017Z,94921.91
2019-04-16T16:11:26.287Z,94926.27
2019-04-16T16:13:59.228Z,94929.64
2019-04-16T16:16:40.826Z,94929.08
2019-04-16T16:18:58.259Z,94933.24
2019-04-16T16:21:27.791Z,94936.80
2019-04-16T16:23:57.277Z,94938.38
2019-04-16T16:26:26.824Z,94940.92
2019-04-16T16:28:56.353Z,94935.37
2019-04-16T16:31:26.128Z,94943.83
2019-04-16T16:33:55.618Z,94946.24
2019-04-16T16:36:25.119Z,94943.92
2019-04-16T16:38:54.764Z,94946.84
2019-04-16T16:41:24.561Z,94954.22
2019-04-16T16:43:54.049Z,94950.80
2019-04-16T16:46:34.006Z,94947.42
2019-04-16T16:49:03.518Z,94951.12
2019-04-16T16:51:33.072Z,94950.03
2019-04-16T16:54:20.414Z,94951.77
2019-04-16T16:57:01.555Z,94957.88
2019-04-16T16:59:43.251Z,94956.27
2019-04-16T17:02:17.091Z,94959.11
2019-04-16T17:04:54.402Z,94958.57
2019-04-16T17:07:24.029Z,94964.27
2019-04-16T17:09:53.606Z,94963.67
2019-04-16T17:12:23.179Z,94968.45
2019-04-16T17:14:52.674Z,94970.78
2019-04-16T17:17:22.189Z,94972.30
2019-04-16T17:19:51.683Z,94978.13
2019-04-16T17:22:21.240Z,94973.67
2019-04-16T17:24:50.740Z,94976.41
2019-04-16T17:27:20.253Z,94974.94
2019-04-16T17:29:50.912Z,94983.08
2019-04-16T17:32:20.556Z,94979.61
2019-04-16T17:34:50.684Z,94972.36
2019-04-16T17:37:21.330Z,94980.58
2019-04-16T17:39:53.168Z,94982.42
2019-04-16T17:42:27.037Z,94987.64
2019-04-16T17:45:13.988Z,94990.72
2019-04-16T17:48:01.000Z,94997.94
2019-04-16T17:50:41.254Z,95001.31
2019-04-16T17:53:27.493Z,94999.22
2019-04-16T17:56:14.815Z,95006.25
2019-04-16T17:58:49.491Z,95009.33
2019-04-16T18:01:23.369Z,95011.00
2019-04-16T18:03:58.387Z,95020.94
2019-04-16T18:06:29.509Z,95032.24
2019-04-16T18:08:58.832Z,95027.98
2019-04-16T18:11:29.976Z,95035.00
2019-04-16T18:14:11.273Z,95034.98
2019-04-16T18:16:39.698Z,95041.92
2019-04-16T18:19:15.037Z,95048.16
2019-04-16T18:21:46.244Z,95051.48
2019-04-16T18:24:20.312Z,95053.88
2019-04-16T18:26:51.480Z,95052.02
2019-04-16T18:29:22.612Z,95052.45
2019-04-16T18:32:31.855Z,95052.66
2019-04-16T18:35:17.127Z,95059.74
2019-04-16T18:37:51.247Z,95058.22
2019-04-16T18:40:28.363Z,95063.70
2019-04-16T18:43:15.501Z,95060.50
2019-04-16T18:46:02.791Z,95066.43
2019-04-16T18:48:33.930Z,95070.97
2019-04-16T18:51:03.420Z,95071.02
2019-04-16T18:53:32.977Z,95077.06
2019-04-16T18:56:02.466Z,95084.04
2019-04-16T18:58:32.026Z,95088.58
2019-04-16T19:01:03.193Z,95097.41
2019-04-16T19:03:32.720Z,95100.62
2019-04-16T19:06:02.378Z,95099.40
2019-04-16T19:08:41.690Z,95105.83
2019-04-16T19:11:04.065Z,95108.27
2019-04-16T19:13:33.675Z,95111.11
2019-04-16T19:16:03.156Z,95108.25
2019-04-16T19:18:32.775Z,95102.16
2019-04-16T19:21:02.270Z,95108.47
2019-04-16T19:23:31.794Z,95107.83
2019-04-16T19:26:01.319Z,95103.98
2019-04-16T19:28:31.085Z,95113.55
2019-04-16T19:31:00.841Z,95119.51
2019-04-16T19:33:32.994Z,95124.11
2019-04-16T19:36:01.688Z,95120.88
2019-04-16T19:38:31.208Z,95128.42
2019-04-16T19:41:01.261Z,95131.05
2019-04-16T19:43:34.677Z,95130.09
2019-04-16T19:46:03.138Z,95129.76
2019-04-16T19:48:35.783Z,95141.20
2019-04-16T19:51:07.239Z,95136.63
2019-04-16T19:53:35.202Z,95144.17
2019-04-16T19:56:04.820Z,95143.83
2019-04-16T19:58:34.784Z,95145.31
2019-04-16T20:01:04.842Z,95143.50
2019-04-16T20:03:34.525Z,95144.16
2019-04-16T20:06:04.114Z,95154.30
2019-04-16T20:08:36.773Z,95155.13
2019-04-16T20:11:04.967Z,95154.83
2019-04-16T20:13:34.543Z,95160.68
2019-04-16T20:16:04.545Z,95164.46
2019-04-16T20:18:49.798Z,95168.91
2019-04-16T20:21:05.570Z,95168.91
2019-04-16T20:23:35.070Z,95170.54
2019-04-16T20:26:04.851Z,95173.28
2019-04-16T20:28:34.347Z,95181.36
2019-04-16T20:31:04.779Z,95182.14
2019-04-16T20:33:34.383Z,95182.10
2019-04-16T20:36:03.938Z,95180.49
2019-04-16T20:38:34.396Z,95182.54
2019-04-16T20:41:03.877Z,95187.30
2019-04-16T20:43:33.421Z,95179.86
2019-04-16T20:46:02.899Z,95178.09
2019-04-16T20:48:32.419Z,95181.91
2019-04-16T20:51:02.541Z,95177.03
2019-04-16T20:53:32.054Z,95169.91
2019-04-16T20:56:01.548Z,95175.72
2019-04-16T20:58:32.086Z,95176.28
2019-04-16T21:01:03.234Z,95171.84
2019-04-16T21:03:32.796Z,95175.28
2019-04-16T21:06:07.170Z,95174.02
2019-04-16T21:08:33.520Z,95179.85
2019-04-16T21:11:07.887Z,95179.29
2019-04-16T21:13:34.270Z,95185.74
2019-04-16T21:16:03.825Z,95183.41
2019-04-16T21:18:33.600Z,95183.00
2019-04-16T21:21:03.112Z,95183.95
2019-04-16T21:23:34.703Z,95186.98
2019-04-16T21:26:03.855Z,95182.58
2019-04-16T21:28:37.651Z,95182.23
2019-04-16T21:31:45.503Z,95185.66
2019-04-16T21:37:15.398Z,95180.51
2019-04-16T21:40:04.574Z,95184.28
2019-04-16T21:42:35.053Z,95181.61
2019-04-16T21:45:07.712Z,95187.17
2019-04-16T21:47:37.192Z,95196.15
2019-04-16T21:50:08.466Z,95199.97
2019-04-16T21:52:37.999Z,95198.34
2019-04-16T21:55:09.236Z,95202.13
2019-04-16T21:57:38.749Z,95204.19
2019-04-16T22:00:11.110Z,95216.53
2019-04-16T22:02:41.537Z,95207.09
2019-04-16T22:05:11.417Z,95212.86
2019-04-16T22:07:40.901Z,95219.12
2019-04-16T22:10:10.724Z,95221.35
2019-04-16T22:12:40.206Z,95221.32
2019-04-16T22:15:09.946Z,95226.62
2019-04-16T22:17:39.458Z,95225.62
2019-04-16T22:20:09.271Z,95229.61
2019-04-16T22:22:38.774Z,95239.19
2019-04-16T22:25:09.654Z,95229.27
2019-04-16T22:27:39.649Z,95232.15
2019-04-16T22:30:10.166Z,95242.88
2019-04-16T22:32:39.656Z,95237.63
2019-04-16T22:35:09.307Z,95236.44
2019-04-16T22:37:38.819Z,95238.99
2019-04-16T22:40:10.013Z,95235.14
2019-04-16T22:42:57.930Z,95238.37
2019-04-16T22:45:32.746Z,95231.38
2019-04-16T22:48:02.576Z,95236.81
2019-04-16T22:50:34.722Z,95236.87
2019-04-16T22:53:03.609Z,95237.62
2019-04-16T22:55:33.130Z,95240.67
2019-04-16T22:58:04.520Z,95241.80
2019-04-16T23:00:35.583Z,95253.41
2019-04-16T23:03:05.294Z,95249.94
2019-04-16T23:05:34.801Z,95250.44
2019-04-16T23:08:04.282Z,95252.22
2019-04-16T23:10:33.784Z,95256.44
2019-04-16T23:13:03.271Z,95256.17
2019-04-16T23:15:33.390Z,95253.83
2019-04-16T23:18:04.109Z,95257.78
2019-04-16T23:20:36.971Z,95254.98
2019-04-16T23:23:04.792Z,95256.02
2019-04-16T23:25:34.294Z,95258.88
2019-04-16T23:28:09.484Z,95259.29
2019-04-16T23:30:35.180Z,95256.75
2019-04-16T23:33:04.822Z,95262.67
2019-04-16T23:35:34.322Z,95267.61
2019-04-16T23:38:03.817Z,95271.87
2019-04-16T23:40:33.342Z,95267.14
2019-04-16T23:43:07.401Z,95266.67
2019-04-16T23:45:38.526Z,95272.14
2019-04-16T23:48:28.324Z,95281.86
2019-04-16T23:51:01.305Z,95281.17
2019-04-16T23:53:38.139Z,95281.29
2019-04-16T23:56:07.960Z,95283.26
2019-04-16T23:58:39.094Z,95284.09
